CYHZ

Halifax / Stanfield International Airport

Halifax, Nova Scotia, Canada
TAF CYHZ 210838Z 2109/2206 06005KT 1/2SM FG VV002 TEMPO 2109/2111 11/2SM -DZ BR OVC004 FM211100 07005KT 2SM BR OVC005 TEMPO 2111/2113 3/4SM BR OVC003 FM211300 09010KT P6SM OVC010 TEMPO 2113/2122 3SM -DZ BR OVC005 FM212200 18005KT 1SM -DZ BR OVC003 FM220200 19010KT 1/2SM FG VV002 RMK NXT FCST BY 211200Z
Issued Valid From Valid To
Jul-21 @ 08:38 UTC
(an hour ago)
Jul-21 @ 09:00 UTC
(41 minutes ago)
Jul-22 @ 06:00 UTC
(in 20 hours)
Jul-21 @ 09:00 to Jul-21 @ 11:00
TAF CYHZ 210838Z 2109/2206 06005KT 1/2SM FG VV002
Wind Visibility Clouds Conditions
60° at 5 knots 1/2 miles
  • Vertical visibility at 200' AGL
  • Fog
Temporary Jul-21 @ 09:00 to Jul-21 @ 11:00
TEMPO 2109/2111 11/2SM -DZ BR OVC004
Visibility Clouds Conditions
1 1/2 miles
  • Overcast at 400' AGL
  • Light Drizzle
  • Mist
From Jul-21 @ 11:00 to Jul-21 @ 13:00
FM211100 07005KT 2SM BR OVC005
Wind Visibility Clouds Conditions
70° at 5 knots 2 miles
  • Overcast at 500' AGL
  • Mist
Temporary Jul-21 @ 11:00 to Jul-21 @ 13:00
TEMPO 2111/2113 3/4SM BR OVC003
Visibility Clouds Conditions
3/4 miles
  • Overcast at 300' AGL
  • Mist
Temporary Jul-21 @ 13:00 to Jul-21 @ 22:00
TEMPO 2113/2122 3SM -DZ BR OVC005
Visibility Clouds Conditions
3 miles
  • Overcast at 500' AGL
  • Light Drizzle
  • Mist
From Jul-21 @ 13:00 to Jul-21 @ 22:00
FM211300 09010KT P6SM OVC010
Wind Visibility Clouds
90° at 10 knots Greater than 6 miles
  • Overcast at 1,000' AGL
From Jul-21 @ 22:00 to Jul-22 @ 02:00
FM212200 18005KT 1SM -DZ BR OVC003
Wind Visibility Clouds Conditions
180° at 5 knots 1 miles
  • Overcast at 300' AGL
  • Light Drizzle
  • Mist
From Jul-22 @ 02:00 to Jul-22 @ 06:00
FM220200 19010KT 1/2SM FG VV002 RMK NXT FCST BY 211200Z
Wind Visibility Clouds Conditions
190° at 10 knots 1/2 miles
  • Vertical visibility at 200' AGL
  • Fog
TAF CYHZ 210838Z 2109/2206 06005KT 1/2SM FG VV002 TEMPO 2109/2111 11/2SM -DZ BR OVC004 FM211100 07005KT 2SM BR OVC005 TEMPO 2111/2113 3/4SM BR OVC003 FM211300 09010KT P6SM OVC010 TEMPO 2113/2122 3SM -DZ BR OVC005 FM212200 18005KT 1SM -DZ BR OVC003 FM220200 19010KT 1/2SM FG VV002 RMK NXT FCST BY 211200Z
Issued Jul-21 @ 08:38 UTC
(an hour ago)
Valid From Jul-21 @ 09:00 UTC
(41 minutes ago)
Valid To Jul-22 @ 06:00 UTC
(in 20 hours)
Jul-21 @ 09:00 - Jul-21 @ 11:00
Wind Visibility
60° at 5 knots 1/2 miles
Clouds
  • Vertical visibility at 200' AGL
Conditions
  • Fog
Temporary Jul-21 @ 09:00 - Jul-21 @ 11:00
Clouds
  • Overcast at 400' AGL
Conditions
  • Light Drizzle
  • Mist
From Jul-21 @ 11:00 - Jul-21 @ 13:00
Wind Visibility
70° at 5 knots 2 miles
Clouds
  • Overcast at 500' AGL
Conditions
  • Mist
Temporary Jul-21 @ 11:00 - Jul-21 @ 13:00
Clouds
  • Overcast at 300' AGL
Conditions
  • Mist
Temporary Jul-21 @ 13:00 - Jul-21 @ 22:00
Clouds
  • Overcast at 500' AGL
Conditions
  • Light Drizzle
  • Mist
From Jul-21 @ 13:00 - Jul-21 @ 22:00
Wind Visibility
90° at 10 knots Greater than 6 miles
Clouds
  • Overcast at 1,000' AGL
From Jul-21 @ 22:00 - Jul-22 @ 02:00
Wind Visibility
180° at 5 knots 1 miles
Clouds
  • Overcast at 300' AGL
Conditions
  • Light Drizzle
  • Mist
From Jul-22 @ 02:00 - Jul-22 @ 06:00
Wind Visibility
190° at 10 knots 1/2 miles
Clouds
  • Vertical visibility at 200' AGL
Conditions
  • Fog